Adger, AL

11:12 AM CDT on August 01, 2015 (GMT -0500)
Lake View North | | Change Station
CLOSE
Current Station
Personal Weather Station
Location: Lake View, AL
Elevation: 565 ft
Nearby Weather Stations

Elev 565 ft 33.29 °N, 87.14 °W | Updated 1 minute ago

Clear
Clear
82.6 °F
Feels Like 84 °F
N
3.1
Wind Variable Wind from NNW
Gusts 4.0 mph

Today
High -- | Low -- °F
--% Chance of Precip.
Yesterday
High -- | Low -- °F
Precip. -- in
6:01 AM 7:48 PM
Full, 98% visible
Pressure 29.99 in
Visibility 10.0 miles
Clouds Scattered Clouds 25000 ft
Heat Index 84 °F
Dew Point 64 °F
Humidity 52%
Rainfall 0.00 in
Snow Depth Not available.
UV 8 out of 12
Pollen 3.90 out of 12
Air Quality Not available.
Flu Activity Not available.
METAR KBHM 011553Z 06015G19KT 10SM SCT250 31/16 A3001 RMK AO2 SLP153 T03060156

More Conditions Fewer Conditions

Pressure 29.99 in
Visibility 10.0 miles
Clouds Scattered Clouds 25000 ft
Heat Index 84 °F
Dew Point 64 °F
Humidity 52%
Rainfall 0.00 in
Snow Depth Not available.
UV 8 out of 12
Pollen 3.90 out of 12
Air Quality Not available.
Flu Activity Not available.
METAR KBHM 011553Z 06015G19KT 10SM SCT250 31/16 A3001 RMK AO2 SLP153 T03060156

More Conditions Fewer Conditions

10-Day Weather Forecast

×

Almanac

Astronomy

Aug. 01, 2015 Rise Set
Actual Time
Civil Twilight
Nautical Twilight
Astronomical Twilight
Moon
Length of Visible Light
Length of Day
Tomorrow will be .
, % of the Moon is Illuminated

Today's Extremes

State Highs State Lows

Community

WunderPhotos

Upload Photos

1,842,975 photos uploaded!

WunderBlogs® & News

Nearby

Air Quality

  Air Quality AQ Index Pollutant
Not available.

Snow Depth

Station Depth Elevation

Earthquake Activity

City Distance Mag. Time & Date
Minimum magnitude displayed is 2.5.

Coastal Water Temperatures

Place Temperature

Stations

Nearby Weather Stations

Station Location Temp. Windchill Dew Point Humidity Wind Precip. Elev Updated Type